sensor_id;sensor_type;location;lat;lon;timestamp;P1;P2;P0
56495;PMS5003;42804;55.762;38.084;2023-04-15T00:01:13;1.00;1.00;0.00
56495;PMS5003;42804;55.762;38.084;2023-04-15T00:03:45;3.00;1.00;0.50
56495;PMS5003;42804;55.762;38.084;2023-04-15T00:06:14;3.00;3.00;0.80
56495;PMS5003;42804;55.762;38.084;2023-04-15T00:08:42;1.00;1.00;0.00
56495;PMS5003;42804;55.762;38.084;2023-04-15T00:11:10;2.40;2.20;0.60
56495;PMS5003;42804;55.762;38.084;2023-04-15T00:13:39;1.40;0.00;0.00
56495;PMS5003;42804;55.762;38.084;2023-04-15T00:16:08;2.00;2.00;0.00
56495;PMS5003;42804;55.762;38.084;2023-04-15T00:18:38;3.00;3.00;0.40
56495;PMS5003;42804;55.762;38.084;2023-04-15T00:21:06;3.20;0.60;0.00
56495;PMS5003;42804;55.762;38.084;2023-04-15T00:23:35;0.80;0.00;0.00
56495;PMS5003;42804;55.762;38.084;2023-04-15T00:26:03;2.60;1.00;1.00
56495;PMS5003;42804;55.762;38.084;2023-04-15T00:28:32;1.00;0.40;0.00
56495;PMS5003;42804;55.762;38.084;2023-04-15T00:31:03;1.00;1.00;0.00
56495;PMS5003;42804;55.762;38.084;2023-04-15T00:33:31;0.00;0.00;0.00
56495;PMS5003;42804;55.762;38.084;2023-04-15T00:36:01;3.00;0.80;0.00
56495;PMS5003;42804;55.762;38.084;2023-04-15T00:38:30;1.00;1.00;0.00
56495;PMS5003;42804;55.762;38.084;2023-04-15T00:40:58;1.00;1.00;0.00
56495;PMS5003;42804;55.762;38.084;2023-04-15T00:43:26;1.00;1.00;0.00
56495;PMS5003;42804;55.762;38.084;2023-04-15T00:45:55;1.00;1.00;0.00
56495;PMS5003;42804;55.762;38.084;2023-04-15T00:48:23;2.60;1.00;0.00
56495;PMS5003;42804;55.762;38.084;2023-04-15T00:50:53;0.80;0.20;0.00
56495;PMS5003;42804;55.762;38.084;2023-04-15T00:53:23;1.00;1.00;0.00
56495;PMS5003;42804;55.762;38.084;2023-04-15T00:55:51;5.60;3.00;0.60
56495;PMS5003;42804;55.762;38.084;2023-04-15T00:58:19;1.00;0.80;0.00
56495;PMS5003;42804;55.762;38.084;2023-04-15T01:00:48;0.20;0.00;0.00
56495;PMS5003;42804;55.762;38.084;2023-04-15T01:03:20;1.00;1.00;0.20
56495;PMS5003;42804;55.762;38.084;2023-04-15T01:05:48;1.00;1.00;0.00
56495;PMS5003;42804;55.762;38.084;2023-04-15T01:08:18;4.00;3.00;0.00
56495;PMS5003;42804;55.762;38.084;2023-04-15T01:10:48;2.60;2.20;0.00
56495;PMS5003;42804;55.762;38.084;2023-04-15T01:13:16;2.20;0.60;0.60
56495;PMS5003;42804;55.762;38.084;2023-04-15T01:15:44;3.00;2.20;0.00
56495;PMS5003;42804;55.762;38.084;2023-04-15T01:18:13;3.00;1.80;0.00
56495;PMS5003;42804;55.762;38.084;2023-04-15T01:20:41;1.80;1.80;0.00
56495;PMS5003;42804;55.762;38.084;2023-04-15T01:23:09;3.80;3.00;0.80
56495;PMS5003;42804;55.762;38.084;2023-04-15T01:25:39;3.00;3.00;1.00
56495;PMS5003;42804;55.762;38.084;2023-04-15T01:28:08;3.40;1.80;1.00
56495;PMS5003;42804;55.762;38.084;2023-04-15T01:30:36;0.00;0.00;0.00
56495;PMS5003;42804;55.762;38.084;2023-04-15T01:33:05;1.40;0.00;0.00
56495;PMS5003;42804;55.762;38.084;2023-04-15T01:35:51;1.00;1.00;0.00
56495;PMS5003;42804;55.762;38.084;2023-04-15T01:38:25;1.00;0.00;0.00
56495;PMS5003;42804;55.762;38.084;2023-04-15T01:40:55;2.60;1.80;1.00
56495;PMS5003;42804;55.762;38.084;2023-04-15T01:43:23;2.60;1.80;0.60
56495;PMS5003;42804;55.762;38.084;2023-04-15T01:45:51;2.00;1.00;0.75
56495;PMS5003;42804;55.762;38.084;2023-04-15T01:48:19;1.00;1.00;0.00
56495;PMS5003;42804;55.762;38.084;2023-04-15T01:50:48;2.60;1.00;0.00
56495;PMS5003;42804;55.762;38.084;2023-04-15T01:53:16;3.00;1.40;0.40
56495;PMS5003;42804;55.762;38.084;2023-04-15T01:55:45;2.60;0.80;0.00
56495;PMS5003;42804;55.762;38.084;2023-04-15T01:58:14;1.40;1.40;0.40
56495;PMS5003;42804;55.762;38.084;2023-04-15T02:00:43;3.00;2.20;0.80
56495;PMS5003;42804;55.762;38.084;2023-04-15T02:03:11;3.80;1.00;0.00
56495;PMS5003;42804;55.762;38.084;2023-04-15T02:05:39;1.80;1.00;0.00
56495;PMS5003;42804;55.762;38.084;2023-04-15T02:08:09;1.80;1.80;0.00
56495;PMS5003;42804;55.762;38.084;2023-04-15T02:10:37;3.60;3.40;1.00
56495;PMS5003;42804;55.762;38.084;2023-04-15T02:13:05;3.40;1.00;0.00
56495;PMS5003;42804;55.762;38.084;2023-04-15T02:15:35;3.00;1.00;1.00
56495;PMS5003;42804;55.762;38.084;2023-04-15T02:18:03;4.00;3.00;0.20
56495;PMS5003;42804;55.762;38.084;2023-04-15T02:20:31;1.00;0.80;0.00
56495;PMS5003;42804;55.762;38.084;2023-04-15T02:23:00;1.00;1.00;0.20
56495;PMS5003;42804;55.762;38.084;2023-04-15T02:25:28;2.60;2.60;0.00
56495;PMS5003;42804;55.762;38.084;2023-04-15T02:27:56;3.00;0.40;0.20
56495;PMS5003;42804;55.762;38.084;2023-04-15T02:30:24;2.60;2.20;1.00
56495;PMS5003;42804;55.762;38.084;2023-04-15T02:32:54;1.00;1.00;0.00
56495;PMS5003;42804;55.762;38.084;2023-04-15T02:35:23;3.00;3.00;1.00
56495;PMS5003;42804;55.762;38.084;2023-04-15T02:37:52;3.00;3.00;1.00
56495;PMS5003;42804;55.762;38.084;2023-04-15T02:40:20;1.80;0.40;0.00
56495;PMS5003;42804;55.762;38.084;2023-04-15T02:42:49;4.40;1.80;0.60
56495;PMS5003;42804;55.762;38.084;2023-04-15T02:45:17;1.00;1.00;0.00
56495;PMS5003;42804;55.762;38.084;2023-04-15T02:47:49;1.00;1.00;1.00
56495;PMS5003;42804;55.762;38.084;2023-04-15T02:50:20;3.00;1.00;0.00
56495;PMS5003;42804;55.762;38.084;2023-04-15T02:52:49;3.00;3.00;0.80
56495;PMS5003;42804;55.762;38.084;2023-04-15T02:55:17;2.00;1.40;0.20
56495;PMS5003;42804;55.762;38.084;2023-04-15T02:57:46;1.00;0.20;0.00
56495;PMS5003;42804;55.762;38.084;2023-04-15T03:00:14;1.00;1.00;0.80
56495;PMS5003;42804;55.762;38.084;2023-04-15T03:02:45;0.00;0.00;0.00
56495;PMS5003;42804;55.762;38.084;2023-04-15T03:05:14;0.40;0.40;0.00
56495;PMS5003;42804;55.762;38.084;2023-04-15T03:07:49;1.40;1.40;0.00
56495;PMS5003;42804;55.762;38.084;2023-04-15T03:10:17;4.20;0.40;0.00
56495;PMS5003;42804;55.762;38.084;2023-04-15T03:12:46;3.00;1.00;0.80
56495;PMS5003;42804;55.762;38.084;2023-04-15T03:15:20;0.60;0.40;0.00
56495;PMS5003;42804;55.762;38.084;2023-04-15T03:17:51;1.80;1.00;0.40
56495;PMS5003;42804;55.762;38.084;2023-04-15T03:20:19;1.80;1.80;0.60
56495;PMS5003;42804;55.762;38.084;2023-04-15T03:22:49;1.00;1.00;0.00
56495;PMS5003;42804;55.762;38.084;2023-04-15T03:25:19;0.00;0.00;0.00
56495;PMS5003;42804;55.762;38.084;2023-04-15T03:27:47;1.40;1.40;1.00
56495;PMS5003;42804;55.762;38.084;2023-04-15T03:30:16;2.20;1.80;1.00
56495;PMS5003;42804;55.762;38.084;2023-04-15T03:32:44;3.00;3.00;1.00
56495;PMS5003;42804;55.762;38.084;2023-04-15T03:35:13;3.40;2.60;0.40
56495;PMS5003;42804;55.762;38.084;2023-04-15T03:37:41;4.00;3.20;1.00
56495;PMS5003;42804;55.762;38.084;2023-04-15T03:40:11;3.40;1.80;0.00
56495;PMS5003;42804;55.762;38.084;2023-04-15T03:42:39;5.20;3.00;1.00
56495;PMS5003;42804;55.762;38.084;2023-04-15T03:45:08;0.60;0.60;0.00
56495;PMS5003;42804;55.762;38.084;2023-04-15T03:47:36;3.00;2.60;1.00
56495;PMS5003;42804;55.762;38.084;2023-04-15T03:50:05;3.00;3.00;2.20
56495;PMS5003;42804;55.762;38.084;2023-04-15T03:52:33;3.80;3.20;1.00
56495;PMS5003;42804;55.762;38.084;2023-04-15T03:55:01;3.00;2.20;0.00
56495;PMS5003;42804;55.762;38.084;2023-04-15T03:57:30;1.00;1.00;0.80
56495;PMS5003;42804;55.762;38.084;2023-04-15T04:00:04;1.00;1.00;1.00
56495;PMS5003;42804;55.762;38.084;2023-04-15T04:02:37;3.00;3.00;1.00
56495;PMS5003;42804;55.762;38.084;2023-04-15T04:05:05;3.60;1.80;1.00
56495;PMS5003;42804;55.762;38.084;2023-04-15T04:07:33;3.00;0.00;0.00
56495;PMS5003;42804;55.762;38.084;2023-04-15T04:10:02;1.80;1.80;1.00
56495;PMS5003;42804;55.762;38.084;2023-04-15T04:12:32;1.40;1.00;0.00
56495;PMS5003;42804;55.762;38.084;2023-04-15T04:15:00;5.60;3.80;2.60
56495;PMS5003;42804;55.762;38.084;2023-04-15T04:17:29;3.00;1.00;0.00
56495;PMS5003;42804;55.762;38.084;2023-04-15T04:19:57;4.00;4.00;3.00
56495;PMS5003;42804;55.762;38.084;2023-04-15T04:22:26;3.00;3.00;1.00
56495;PMS5003;42804;55.762;38.084;2023-04-15T04:24:54;5.20;3.60;1.40
56495;PMS5003;42804;55.762;38.084;2023-04-15T04:27:24;2.60;1.00;1.00
56495;PMS5003;42804;55.762;38.084;2023-04-15T04:29:54;3.80;3.40;1.80
56495;PMS5003;42804;55.762;38.084;2023-04-15T04:32:22;3.60;3.60;1.80
56495;PMS5003;42804;55.762;38.084;2023-04-15T04:34:50;4.00;3.00;1.80
56495;PMS5003;42804;55.762;38.084;2023-04-15T04:37:18;3.00;3.00;1.00
56495;PMS5003;42804;55.762;38.084;2023-04-15T04:39:46;3.80;3.00;1.00
56495;PMS5003;42804;55.762;38.084;2023-04-15T04:42:14;1.00;1.00;0.00
56495;PMS5003;42804;55.762;38.084;2023-04-15T04:44:42;3.20;3.20;1.00
56495;PMS5003;42804;55.762;38.084;2023-04-15T04:47:11;1.00;1.00;0.50
56495;PMS5003;42804;55.762;38.084;2023-04-15T04:49:39;4.60;4.00;1.80
56495;PMS5003;42804;55.762;38.084;2023-04-15T04:52:08;1.00;1.00;0.00
56495;PMS5003;42804;55.762;38.084;2023-04-15T04:54:37;1.80;1.20;1.00
56495;PMS5003;42804;55.762;38.084;2023-04-15T04:57:05;1.50;0.75;0.00
56495;PMS5003;42804;55.762;38.084;2023-04-15T04:59:33;3.75;2.25;1.00
56495;PMS5003;42804;55.762;38.084;2023-04-15T05:02:02;2.50;2.50;0.50
56495;PMS5003;42804;55.762;38.084;2023-04-15T05:04:31;4.00;3.50;1.00
56495;PMS5003;42804;55.762;38.084;2023-04-15T05:07:00;1.50;1.50;1.00
56495;PMS5003;42804;55.762;38.084;2023-04-15T05:09:28;1.50;1.25;0.00
56495;PMS5003;42804;55.762;38.084;2023-04-15T05:11:59;1.50;1.50;1.00
56495;PMS5003;42804;55.762;38.084;2023-04-15T05:14:27;1.75;1.00;0.75
56495;PMS5003;42804;55.762;38.084;2023-04-15T05:16:55;1.75;1.50;1.00
56495;PMS5003;42804;55.762;38.084;2023-04-15T05:19:24;3.50;2.50;0.00
56495;PMS5003;42804;55.762;38.084;2023-04-15T05:21:53;2.00;1.50;0.75
56495;PMS5003;42804;55.762;38.084;2023-04-15T05:24:21;0.75;0.00;0.00
56495;PMS5003;42804;55.762;38.084;2023-04-15T05:26:49;1.00;0.75;0.00
56495;PMS5003;42804;55.762;38.084;2023-04-15T05:29:17;3.00;0.50;0.00
56495;PMS5003;42804;55.762;38.084;2023-04-15T05:31:46;0.00;0.00;0.00
56495;PMS5003;42804;55.762;38.084;2023-04-15T05:34:14;3.00;1.00;0.25
56495;PMS5003;42804;55.762;38.084;2023-04-15T05:36:43;2.00;2.00;0.75
56495;PMS5003;42804;55.762;38.084;2023-04-15T05:39:12;3.00;3.00;1.50
56495;PMS5003;42804;55.762;38.084;2023-04-15T05:41:41;3.75;3.75;1.00
56495;PMS5003;42804;55.762;38.084;2023-04-15T05:44:09;1.00;1.00;1.00
56495;PMS5003;42804;55.762;38.084;2023-04-15T05:46:37;2.50;1.50;0.75
56495;PMS5003;42804;55.762;38.084;2023-04-15T05:49:06;2.00;2.00;1.00
56495;PMS5003;42804;55.762;38.084;2023-04-15T05:51:34;1.50;1.50;1.50
56495;PMS5003;42804;55.762;38.084;2023-04-15T05:54:02;3.00;2.00;1.00
56495;PMS5003;42804;55.762;38.084;2023-04-15T05:56:32;1.00;1.00;0.00
56495;PMS5003;42804;55.762;38.084;2023-04-15T05:59:00;1.00;1.00;0.00
56495;PMS5003;42804;55.762;38.084;2023-04-15T06:01:28;4.00;3.00;1.00
56495;PMS5003;42804;55.762;38.084;2023-04-15T06:03:57;3.00;3.00;1.00
56495;PMS5003;42804;55.762;38.084;2023-04-15T06:06:26;1.50;1.00;0.50
56495;PMS5003;42804;55.762;38.084;2023-04-15T06:08:54;3.00;3.00;1.00
56495;PMS5003;42804;55.762;38.084;2023-04-15T06:11:23;5.00;4.00;2.00
56495;PMS5003;42804;55.762;38.084;2023-04-15T06:13:53;2.00;2.00;1.00
56495;PMS5003;42804;55.762;38.084;2023-04-15T06:16:22;1.00;1.00;0.00
56495;PMS5003;42804;55.762;38.084;2023-04-15T06:18:50;1.00;1.00;0.25
56495;PMS5003;42804;55.762;38.084;2023-04-15T06:21:19;1.50;1.50;0.00
56495;PMS5003;42804;55.762;38.084;2023-04-15T06:23:47;2.00;2.00;0.00
56495;PMS5003;42804;55.762;38.084;2023-04-15T06:26:15;3.25;2.00;0.50
56495;PMS5003;42804;55.762;38.084;2023-04-15T06:28:43;1.50;1.50;1.00
56495;PMS5003;42804;55.762;38.084;2023-04-15T06:31:13;2.00;2.00;1.00
56495;PMS5003;42804;55.762;38.084;2023-04-15T06:33:41;1.75;1.00;0.00
56495;PMS5003;42804;55.762;38.084;2023-04-15T06:36:10;3.50;3.50;1.25
56495;PMS5003;42804;55.762;38.084;2023-04-15T06:38:38;2.00;2.00;1.00
56495;PMS5003;42804;55.762;38.084;2023-04-15T06:41:06;3.50;2.50;1.00
56495;PMS5003;42804;55.762;38.084;2023-04-15T06:43:35;1.00;1.00;1.00
56495;PMS5003;42804;55.762;38.084;2023-04-15T06:46:03;4.25;4.25;1.25
56495;PMS5003;42804;55.762;38.084;2023-04-15T06:48:33;1.00;0.75;0.00
56495;PMS5003;42804;55.762;38.084;2023-04-15T06:51:01;1.50;1.25;1.00
56495;PMS5003;42804;55.762;38.084;2023-04-15T06:53:29;4.25;3.50;1.00
56495;PMS5003;42804;55.762;38.084;2023-04-15T06:55:58;3.00;2.00;1.00
56495;PMS5003;42804;55.762;38.084;2023-04-15T06:58:26;4.00;2.00;2.00
56495;PMS5003;42804;55.762;38.084;2023-04-15T07:00:55;4.00;3.00;1.00
56495;PMS5003;42804;55.762;38.084;2023-04-15T07:03:23;4.00;2.00;1.00
56495;PMS5003;42804;55.762;38.084;2023-04-15T07:05:52;4.00;2.00;1.00
56495;PMS5003;42804;55.762;38.084;2023-04-15T07:08:32;3.00;2.00;0.75
56495;PMS5003;42804;55.762;38.084;2023-04-15T07:11:01;2.00;2.00;1.00
56495;PMS5003;42804;55.762;38.084;2023-04-15T07:13:29;1.00;1.00;0.25
56495;PMS5003;42804;55.762;38.084;2023-04-15T07:15:58;2.00;2.00;1.00
56495;PMS5003;42804;55.762;38.084;2023-04-15T07:18:26;4.00;4.00;1.00
56495;PMS5003;42804;55.762;38.084;2023-04-15T07:20:56;4.75;4.50;2.00
56495;PMS5003;42804;55.762;38.084;2023-04-15T07:23:24;2.00;2.00;1.00
56495;PMS5003;42804;55.762;38.084;2023-04-15T07:25:52;4.00;2.50;1.00
56495;PMS5003;42804;55.762;38.084;2023-04-15T07:28:20;1.00;1.00;0.00
56495;PMS5003;42804;55.762;38.084;2023-04-15T07:30:49;2.00;1.00;0.25
56495;PMS5003;42804;55.762;38.084;2023-04-15T07:33:18;2.00;2.00;1.00
56495;PMS5003;42804;55.762;38.084;2023-04-15T07:35:46;1.00;1.00;0.00
56495;PMS5003;42804;55.762;38.084;2023-04-15T07:38:15;1.50;1.00;0.25
56495;PMS5003;42804;55.762;38.084;2023-04-15T07:40:44;2.50;1.50;1.00
56495;PMS5003;42804;55.762;38.084;2023-04-15T07:43:13;4.25;3.00;1.00
56495;PMS5003;42804;55.762;38.084;2023-04-15T07:45:41;2.00;2.00;1.00
56495;PMS5003;42804;55.762;38.084;2023-04-15T07:48:10;4.00;4.00;1.75
56495;PMS5003;42804;55.762;38.084;2023-04-15T07:50:38;2.50;2.00;0.75
56495;PMS5003;42804;55.762;38.084;2023-04-15T07:53:08;2.75;1.00;0.00
56495;PMS5003;42804;55.762;38.084;2023-04-15T07:55:37;1.50;1.50;1.00
56495;PMS5003;42804;55.762;38.084;2023-04-15T07:58:06;3.50;1.75;1.00
56495;PMS5003;42804;55.762;38.084;2023-04-15T08:00:34;4.50;2.25;1.00
56495;PMS5003;42804;55.762;38.084;2023-04-15T08:03:03;3.00;1.75;0.75
56495;PMS5003;42804;55.762;38.084;2023-04-15T08:05:32;4.75;2.75;1.00
56495;PMS5003;42804;55.762;38.084;2023-04-15T08:08:08;4.50;4.00;1.00
56495;PMS5003;42804;55.762;38.084;2023-04-15T08:10:57;2.50;2.50;1.00
56495;PMS5003;42804;55.762;38.084;2023-04-15T08:13:25;6.00;4.25;1.25
56495;PMS5003;42804;55.762;38.084;2023-04-15T08:18:36;3.00;1.00;0.00
56495;PMS5003;42804;55.762;38.084;2023-04-15T08:21:05;2.50;2.00;1.00
56495;PMS5003;42804;55.762;38.084;2023-04-15T08:23:33;2.50;2.00;1.00
56495;PMS5003;42804;55.762;38.084;2023-04-15T08:26:02;3.00;2.00;1.00
56495;PMS5003;42804;55.762;38.084;2023-04-15T08:28:31;1.00;1.00;0.00
56495;PMS5003;42804;55.762;38.084;2023-04-15T08:30:59;5.00;5.00;3.00
56495;PMS5003;42804;55.762;38.084;2023-04-15T08:33:27;1.75;1.75;0.00
56495;PMS5003;42804;55.762;38.084;2023-04-15T08:35:55;3.25;3.25;0.50
56495;PMS5003;42804;55.762;38.084;2023-04-15T08:38:23;2.00;2.00;1.00
56495;PMS5003;42804;55.762;38.084;2023-04-15T08:40:52;2.25;2.25;1.00
56495;PMS5003;42804;55.762;38.084;2023-04-15T08:43:22;1.25;1.25;1.00
56495;PMS5003;42804;55.762;38.084;2023-04-15T08:45:52;2.00;2.00;1.00
56495;PMS5003;42804;55.762;38.084;2023-04-15T08:48:20;2.00;1.75;1.00
56495;PMS5003;42804;55.762;38.084;2023-04-15T08:50:50;3.00;2.50;1.25
56495;PMS5003;42804;55.762;38.084;2023-04-15T08:53:19;3.00;1.00;1.00
56495;PMS5003;42804;55.762;38.084;2023-04-15T08:55:51;1.25;1.25;1.00
56495;PMS5003;42804;55.762;38.084;2023-04-15T08:58:19;2.00;1.00;0.00
56495;PMS5003;42804;55.762;38.084;2023-04-15T09:00:49;2.00;2.00;1.00
56495;PMS5003;42804;55.762;38.084;2023-04-15T09:03:17;3.00;2.00;1.00
56495;PMS5003;42804;55.762;38.084;2023-04-15T09:05:47;2.00;1.25;1.00
56495;PMS5003;42804;55.762;38.084;2023-04-15T09:08:18;3.00;3.00;1.50
56495;PMS5003;42804;55.762;38.084;2023-04-15T09:10:47;3.00;2.00;1.00
56495;PMS5003;42804;55.762;38.084;2023-04-15T09:13:15;2.50;1.50;0.00
56495;PMS5003;42804;55.762;38.084;2023-04-15T09:15:43;4.00;2.00;1.00
56495;PMS5003;42804;55.762;38.084;2023-04-15T09:18:33;3.50;3.00;1.00
56495;PMS5003;42804;55.762;38.084;2023-04-15T09:21:04;5.00;4.75;2.50
56495;PMS5003;42804;55.762;38.084;2023-04-15T09:23:34;4.50;4.25;1.00
56495;PMS5003;42804;55.762;38.084;2023-04-15T09:26:03;2.50;1.50;0.50
56495;PMS5003;42804;55.762;38.084;2023-04-15T09:28:31;2.50;2.00;1.00
56495;PMS5003;42804;55.762;38.084;2023-04-15T09:31:01;4.00;3.00;1.00
56495;PMS5003;42804;55.762;38.084;2023-04-15T09:33:29;1.75;1.25;0.00
56495;PMS5003;42804;55.762;38.084;2023-04-15T09:36:00;4.00;3.50;1.00
56495;PMS5003;42804;55.762;38.084;2023-04-15T09:38:29;5.00;4.00;1.50
56495;PMS5003;42804;55.762;38.084;2023-04-15T09:40:57;3.75;2.50;1.00
56495;PMS5003;42804;55.762;38.084;2023-04-15T09:46:08;1.00;0.50;0.00
56495;PMS5003;42804;55.762;38.084;2023-04-15T09:48:37;2.00;2.00;1.00
56495;PMS5003;42804;55.762;38.084;2023-04-15T09:51:07;2.00;1.00;0.50
56495;PMS5003;42804;55.762;38.084;2023-04-15T09:53:35;5.00;4.50;1.00
56495;PMS5003;42804;55.762;38.084;2023-04-15T09:56:04;4.50;3.50;2.00
56495;PMS5003;42804;55.762;38.084;2023-04-15T09:58:42;3.25;3.25;1.00
56495;PMS5003;42804;55.762;38.084;2023-04-15T10:01:14;5.00;3.75;2.00
56495;PMS5003;42804;55.762;38.084;2023-04-15T10:04:00;5.75;5.75;2.00
56495;PMS5003;42804;55.762;38.084;2023-04-15T10:06:31;3.50;3.00;2.00
56495;PMS5003;42804;55.762;38.084;2023-04-15T10:09:18;2.00;2.00;1.00
56495;PMS5003;42804;55.762;38.084;2023-04-15T10:11:46;7.00;4.50;1.00
56495;PMS5003;42804;55.762;38.084;2023-04-15T10:14:15;2.00;2.00;1.00
56495;PMS5003;42804;55.762;38.084;2023-04-15T10:16:45;6.75;4.25;1.25
56495;PMS5003;42804;55.762;38.084;2023-04-15T10:19:35;8.00;5.75;2.00
56495;PMS5003;42804;55.762;38.084;2023-04-15T10:22:05;5.00;3.50;2.00
56495;PMS5003;42804;55.762;38.084;2023-04-15T10:24:51;4.25;4.00;1.50
56495;PMS5003;42804;55.762;38.084;2023-04-15T10:27:20;3.00;2.25;1.00
56495;PMS5003;42804;55.762;38.084;2023-04-15T10:29:51;2.00;2.00;1.00
56495;PMS5003;42804;55.762;38.084;2023-04-15T10:32:23;3.00;3.00;1.00
56495;PMS5003;42804;55.762;38.084;2023-04-15T10:34:53;3.50;2.50;1.25
56495;PMS5003;42804;55.762;38.084;2023-04-15T10:37:32;1.00;1.00;0.00
56495;PMS5003;42804;55.762;38.084;2023-04-15T10:40:25;5.75;4.25;1.50
56495;PMS5003;42804;55.762;38.084;2023-04-15T10:42:54;5.00;2.00;1.00
56495;PMS5003;42804;55.762;38.084;2023-04-15T10:48:11;3.50;2.75;2.00
56495;PMS5003;42804;55.762;38.084;2023-04-15T10:50:48;5.00;2.00;2.00
56495;PMS5003;42804;55.762;38.084;2023-04-15T10:53:27;3.00;3.00;2.00
56495;PMS5003;42804;55.762;38.084;2023-04-15T10:55:56;6.50;5.75;2.75
56495;PMS5003;42804;55.762;38.084;2023-04-15T10:58:24;4.50;3.25;1.75
56495;PMS5003;42804;55.762;38.084;2023-04-15T11:00:53;2.50;1.75;1.00
56495;PMS5003;42804;55.762;38.084;2023-04-15T11:03:39;5.25;4.00;2.00
56495;PMS5003;42804;55.762;38.084;2023-04-15T11:06:08;2.50;2.00;1.25
56495;PMS5003;42804;55.762;38.084;2023-04-15T11:08:53;5.50;4.00;2.00
56495;PMS5003;42804;55.762;38.084;2023-04-15T11:11:22;1.75;1.00;0.00
56495;PMS5003;42804;55.762;38.084;2023-04-15T11:13:50;4.50;3.75;1.00
56495;PMS5003;42804;55.762;38.084;2023-04-15T11:16:19;4.75;4.00;2.00
56495;PMS5003;42804;55.762;38.084;2023-04-15T11:18:52;2.00;2.00;1.00
56495;PMS5003;42804;55.762;38.084;2023-04-15T11:21:23;5.00;3.25;2.00
56495;PMS5003;42804;55.762;38.084;2023-04-15T11:23:53;2.00;2.00;1.00
56495;PMS5003;42804;55.762;38.084;2023-04-15T11:26:24;5.25;5.00;3.00
56495;PMS5003;42804;55.762;38.084;2023-04-15T11:28:53;5.25;3.25;2.00
56495;PMS5003;42804;55.762;38.084;2023-04-15T11:31:21;6.25;6.00;2.50
56495;PMS5003;42804;55.762;38.084;2023-04-15T11:33:53;3.00;2.75;1.00
56495;PMS5003;42804;55.762;38.084;2023-04-15T11:36:23;2.00;2.00;1.00
56495;PMS5003;42804;55.762;38.084;2023-04-15T11:38:53;2.00;1.75;0.50
56495;PMS5003;42804;55.762;38.084;2023-04-15T11:41:22;3.00;3.00;1.00
56495;PMS5003;42804;55.762;38.084;2023-04-15T11:43:50;4.25;3.00;1.00
56495;PMS5003;42804;55.762;38.084;2023-04-15T11:46:38;5.00;2.00;1.00
56495;PMS5003;42804;55.762;38.084;2023-04-15T11:49:11;2.75;2.00;1.00
56495;PMS5003;42804;55.762;38.084;2023-04-15T11:51:53;5.25;4.25;2.75
56495;PMS5003;42804;55.762;38.084;2023-04-15T11:54:22;6.25;4.50;2.25
56495;PMS5003;42804;55.762;38.084;2023-04-15T11:59:40;4.75;2.25;1.00
56495;PMS5003;42804;55.762;38.084;2023-04-15T12:02:11;3.50;3.50;2.00
56495;PMS5003;42804;55.762;38.084;2023-04-15T12:04:40;2.00;2.00;1.00
56495;PMS5003;42804;55.762;38.084;2023-04-15T12:07:09;0.50;0.50;0.00
56495;PMS5003;42804;55.762;38.084;2023-04-15T12:09:39;3.50;3.25;2.00
56495;PMS5003;42804;55.762;38.084;2023-04-15T12:12:09;4.25;3.00;2.00
56495;PMS5003;42804;55.762;38.084;2023-04-15T12:14:38;3.75;3.00;2.00
56495;PMS5003;42804;55.762;38.084;2023-04-15T12:17:09;4.50;3.00;2.00
56495;PMS5003;42804;55.762;38.084;2023-04-15T12:19:42;5.00;4.50;2.50
56495;PMS5003;42804;55.762;38.084;2023-04-15T12:22:11;6.00;5.25;1.50
56495;PMS5003;42804;55.762;38.084;2023-04-15T12:24:42;4.50;4.50;2.75
56495;PMS5003;42804;55.762;38.084;2023-04-15T12:27:15;4.00;3.75;2.00
56495;PMS5003;42804;55.762;38.084;2023-04-15T12:29:45;8.50;5.75;2.00
56495;PMS5003;42804;55.762;38.084;2023-04-15T12:32:15;6.50;5.50;2.00
56495;PMS5003;42804;55.762;38.084;2023-04-15T12:34:48;6.25;3.50;2.00
56495;PMS5003;42804;55.762;38.084;2023-04-15T12:37:17;6.50;5.00;2.75
56495;PMS5003;42804;55.762;38.084;2023-04-15T12:39:50;9.50;7.00;3.00
56495;PMS5003;42804;55.762;38.084;2023-04-15T12:42:36;7.75;6.75;3.75
56495;PMS5003;42804;55.762;38.084;2023-04-15T12:45:05;9.00;7.50;5.00
56495;PMS5003;42804;55.762;38.084;2023-04-15T12:47:33;5.00;5.00;3.00
56495;PMS5003;42804;55.762;38.084;2023-04-15T12:50:02;7.50;6.25;3.00
56495;PMS5003;42804;55.762;38.084;2023-04-15T12:52:31;6.00;6.00;3.00
56495;PMS5003;42804;55.762;38.084;2023-04-15T12:55:00;3.50;3.50;2.00
56495;PMS5003;42804;55.762;38.084;2023-04-15T12:57:29;7.50;5.50;3.00
56495;PMS5003;42804;55.762;38.084;2023-04-15T13:00:16;4.00;3.00;2.00
56495;PMS5003;42804;55.762;38.084;2023-04-15T13:02:45;8.50;6.00;3.50
56495;PMS5003;42804;55.762;38.084;2023-04-15T13:05:13;5.50;4.00;3.00
56495;PMS5003;42804;55.762;38.084;2023-04-15T13:07:43;2.75;2.00;1.00
56495;PMS5003;42804;55.762;38.084;2023-04-15T13:10:13;5.50;4.25;2.00
56495;PMS5003;42804;55.762;38.084;2023-04-15T13:12:42;4.50;4.00;2.75
56495;PMS5003;42804;55.762;38.084;2023-04-15T13:17:59;1.75;0.50;0.00
56495;PMS5003;42804;55.762;38.084;2023-04-15T13:20:28;8.75;7.25;3.25
56495;PMS5003;42804;55.762;38.084;2023-04-15T13:22:57;7.75;6.75;3.00
56495;PMS5003;42804;55.762;38.084;2023-04-15T13:25:35;7.75;7.50;4.00
56495;PMS5003;42804;55.762;38.084;2023-04-15T13:28:08;8.75;8.50;4.75
56495;PMS5003;42804;55.762;38.084;2023-04-15T13:30:38;6.00;6.00;4.50
56495;PMS5003;42804;55.762;38.084;2023-04-15T13:33:06;6.75;4.75;2.00
56495;PMS5003;42804;55.762;38.084;2023-04-15T13:38:53;5.50;3.00;1.50
56495;PMS5003;42804;55.762;38.084;2023-04-15T13:41:24;3.00;2.25;1.00
56495;PMS5003;42804;55.762;38.084;2023-04-15T13:43:52;6.25;5.00;3.00
56495;PMS5003;42804;55.762;38.084;2023-04-15T13:46:20;6.00;5.00;2.00
56495;PMS5003;42804;55.762;38.084;2023-04-15T13:48:49;6.75;6.00;5.00
56495;PMS5003;42804;55.762;38.084;2023-04-15T13:51:17;7.25;7.25;5.00
56495;PMS5003;42804;55.762;38.084;2023-04-15T13:53:45;2.00;2.00;0.00
56495;PMS5003;42804;55.762;38.084;2023-04-15T13:56:13;6.25;6.00;4.00
56495;PMS5003;42804;55.762;38.084;2023-04-15T13:58:43;11.50;9.00;5.25
56495;PMS5003;42804;55.762;38.084;2023-04-15T14:01:12;11.50;7.00;4.50
56495;PMS5003;42804;55.762;38.084;2023-04-15T14:03:40;7.50;7.50;5.00
56495;PMS5003;42804;55.762;38.084;2023-04-15T14:06:09;9.00;7.50;5.50
56495;PMS5003;42804;55.762;38.084;2023-04-15T14:08:38;8.50;8.00;6.00
56495;PMS5003;42804;55.762;38.084;2023-04-15T14:11:07;5.50;4.50;2.50
56495;PMS5003;42804;55.762;38.084;2023-04-15T14:13:35;9.25;8.25;4.50
56495;PMS5003;42804;55.762;38.084;2023-04-15T14:16:05;6.00;6.00;5.00
56495;PMS5003;42804;55.762;38.084;2023-04-15T14:18:33;7.25;7.25;5.00
56495;PMS5003;42804;55.762;38.084;2023-04-15T14:21:04;10.25;9.25;6.00
56495;PMS5003;42804;55.762;38.084;2023-04-15T14:23:32;7.00;6.00;3.00
56495;PMS5003;42804;55.762;38.084;2023-04-15T14:26:00;9.00;7.50;4.50
56495;PMS5003;42804;55.762;38.084;2023-04-15T14:31:53;8.00;6.75;5.00
56495;PMS5003;42804;55.762;38.084;2023-04-15T14:34:56;12.00;7.00;4.50
56495;PMS5003;42804;55.762;38.084;2023-04-15T14:40:11;8.00;5.75;3.00
56495;PMS5003;42804;55.762;38.084;2023-04-15T14:42:40;7.00;6.00;2.50
56495;PMS5003;42804;55.762;38.084;2023-04-15T14:45:10;4.00;3.25;1.00
56495;PMS5003;42804;55.762;38.084;2023-04-15T14:47:40;7.00;6.25;4.50